Time;durP1;ratioP1;P1;durP2;ratioP2;P2;SDS_P1;SDS_P2;PMS_P1;PMS_P2;Temp;Humidity;BMP_temperature;BMP_pressure;BME280_temperature;BME280_humidity;BME280_pressure;Samples;Min_cycle;Max_cycle;Signal;HPM_P1;HPM_P2
2022/10/07 00:01:36;;;;;;;10.05;3.40;;;7.90;99.90;;;;;;4328420;28;9999724;-79
2022/10/07 00:04:01;;;;;;;7.25;3.00;;;7.90;99.90;;;;;;5025571;28;20104;-79
2022/10/07 00:06:27;;;;;;;9.27;3.63;;;7.90;99.90;;;;;;5035856;28;20067;-79
2022/10/07 00:08:53;;;;;;;9.93;3.95;;;7.90;99.90;;;;;;5026473;28;20478;-79
2022/10/07 00:11:24;;;;;;;8.50;3.50;;;7.90;99.90;;;;;;5025643;28;20025;-78
2022/10/07 00:13:59;;;;;;;6.43;2.90;;;7.90;99.90;;;;;;5026108;28;20575;-79
2022/10/07 00:16:28;;;;;;;8.80;3.45;;;7.90;99.90;;;;;;5025142;28;20040;-79
2022/10/07 00:18:56;;;;;;;13.77;3.60;;;7.90;99.90;;;;;;5023891;28;20133;-79
2022/10/07 00:21:23;;;;;;;11.05;3.95;;;7.90;99.90;;;;;;5024087;28;20044;-79
2022/10/07 00:23:49;;;;;;;9.88;3.50;;;7.90;99.90;;;;;;5027529;28;20025;-79
2022/10/07 00:26:21;;;;;;;8.15;3.30;;;7.90;99.90;;;;;;5023567;28;21354;-79
2022/10/07 00:28:47;;;;;;;8.10;3.25;;;7.90;99.90;;;;;;5022334;28;20042;-79
2022/10/07 00:31:15;;;;;;;6.00;3.10;;;7.80;99.90;;;;;;5027137;28;20037;-79
2022/10/07 00:33:41;;;;;;;6.40;3.03;;;7.80;99.90;;;;;;5028918;28;20033;-79
2022/10/07 00:36:08;;;;;;;7.38;3.22;;;7.80;99.90;;;;;;5021744;28;20029;-79
2022/10/07 00:38:34;;;;;;;10.63;3.75;;;7.80;99.90;;;;;;5026180;28;20033;-79
2022/10/07 00:41:00;;;;;;;9.02;3.50;;;7.80;99.90;;;;;;5025862;28;20100;-79
2022/10/07 00:43:28;;;;;;;6.18;3.05;;;7.70;99.90;;;;;;5030456;28;20549;-80
2022/10/07 00:45:59;;;;;;;13.73;4.00;;;7.60;99.90;;;;;;5027889;28;20060;-79
2022/10/07 00:48:29;;;;;;;8.57;4.05;;;7.60;99.90;;;;;;5024654;28;20042;-79
2022/10/07 00:50:58;;;;;;;8.70;3.63;;;7.60;99.90;;;;;;5024403;28;20361;-79
2022/10/07 00:53:26;;;;;;;11.02;4.15;;;7.60;99.90;;;;;;5027244;28;20033;-79
2022/10/07 00:55:56;;;;;;;11.68;4.18;;;7.60;99.90;;;;;;5029845;28;20079;-79
2022/10/07 00:58:22;;;;;;;6.88;3.28;;;7.60;99.90;;;;;;5019866;28;20432;-79
2022/10/07 01:00:47;;;;;;;8.82;3.92;;;7.60;99.90;;;;;;5025290;28;20114;-79
2022/10/07 01:03:14;;;;;;;9.75;3.90;;;7.60;99.90;;;;;;5024980;28;20485;-79
2022/10/07 01:05:39;;;;;;;12.63;3.90;;;7.50;99.90;;;;;;5028282;28;20037;-79
2022/10/07 01:08:05;;;;;;;10.88;3.50;;;7.50;99.90;;;;;;5020310;28;20017;-79
2022/10/07 01:10:44;;;;;;;8.95;3.50;;;7.50;99.90;;;;;;5027006;28;20029;-79
2022/10/07 01:13:22;;;;;;;7.10;3.35;;;7.40;99.90;;;;;;5026412;28;20375;-79
2022/10/07 01:16:16;;;;;;;8.75;3.78;;;7.40;99.90;;;;;;5031774;28;20104;-79
2022/10/07 01:18:56;;;;;;;8.57;3.05;;;7.30;99.90;;;;;;5029876;28;20053;-78
2022/10/07 01:22:04;;;;;;;8.57;3.22;;;7.20;99.90;;;;;;5024976;28;21275;-78
2022/10/07 01:24:41;;;;;;;7.95;3.75;;;7.20;99.90;;;;;;5024216;28;20037;-79
2022/10/07 01:27:13;;;;;;;9.07;3.50;;;7.20;99.90;;;;;;5029371;28;20033;-78
2022/10/07 01:29:42;;;;;;;7.05;3.25;;;7.10;99.90;;;;;;5020688;28;20060;-79
2022/10/07 01:32:31;;;;;;;9.45;3.55;;;7.10;99.90;;;;;;5027323;28;21581;-79
2022/10/07 01:34:59;;;;;;;7.05;3.42;;;7.10;99.90;;;;;;5026914;28;20416;-79
2022/10/07 01:37:30;;;;;;;7.07;3.53;;;7.00;99.90;;;;;;5024791;28;20041;-78
2022/10/07 01:40:00;;;;;;;8.95;3.20;;;7.00;99.90;;;;;;5019915;28;20033;-78
2022/10/07 01:42:28;;;;;;;7.75;3.70;;;7.00;99.90;;;;;;5025828;28;20167;-78
2022/10/07 01:44:56;;;;;;;12.55;3.40;;;6.90;99.90;;;;;;5024991;28;20022;-78
2022/10/07 01:47:25;;;;;;;10.10;3.30;;;6.90;99.90;;;;;;5025080;28;20017;-78
2022/10/07 01:49:50;;;;;;;6.22;2.83;;;6.90;99.90;;;;;;5021040;28;20035;-78
2022/10/07 01:52:29;;;;;;;6.72;3.00;;;6.90;99.90;;;;;;5026649;28;20394;-79
2022/10/07 01:55:15;;;;;;;6.55;2.85;;;6.80;99.90;;;;;;5027086;28;20040;-78
2022/10/07 01:57:46;;;;;;;10.70;3.35;;;6.80;99.90;;;;;;5024692;28;20507;-78
2022/10/07 02:00:13;;;;;;;9.63;3.13;;;6.90;99.90;;;;;;5022228;28;20344;-79
2022/10/07 02:03:00;;;;;;;12.90;3.28;;;6.90;99.90;;;;;;5026703;28;20060;-79
2022/10/07 02:05:34;;;;;;;9.60;3.30;;;6.80;99.90;;;;;;5027422;28;20484;-79
2022/10/07 02:08:31;;;;;;;10.02;3.42;;;6.80;99.90;;;;;;5019161;28;20470;-78
2022/10/07 02:11:27;;;;;;;8.80;3.20;;;6.70;99.90;;;;;;5020716;28;20694;-79
2022/10/07 02:14:18;;;;;;;12.20;3.45;;;6.70;99.90;;;;;;5019641;28;20088;-79
2022/10/07 02:16:48;;;;;;;7.80;3.58;;;6.60;99.90;;;;;;5027263;28;20109;-79
2022/10/07 02:19:42;;;;;;;7.30;3.40;;;6.60;99.90;;;;;;5024348;28;20429;-79
2022/10/07 02:22:10;;;;;;;6.80;3.05;;;6.50;99.90;;;;;;5028854;28;20034;-79
2022/10/07 02:24:38;;;;;;;8.02;3.28;;;6.40;99.90;;;;;;5027799;28;20063;-79
2022/10/07 02:27:11;;;;;;;5.55;2.97;;;6.40;99.90;;;;;;5023672;28;20611;-79
2022/10/07 02:29:40;;;;;;;8.25;3.70;;;6.40;99.90;;;;;;5020198;28;20048;-79
2022/10/07 02:32:11;;;;;;;5.20;2.90;;;6.40;99.90;;;;;;5024618;28;20040;-79
2022/10/07 02:34:40;;;;;;;6.63;3.42;;;6.40;99.90;;;;;;5027769;28;20029;-79
2022/10/07 02:37:13;;;;;;;5.95;3.22;;;6.40;99.90;;;;;;5023678;28;20032;-79
2022/10/07 02:39:39;;;;;;;7.72;3.60;;;6.40;99.90;;;;;;5024434;28;20077;-78
2022/10/07 02:42:14;;;;;;;6.13;3.58;;;6.40;99.90;;;;;;5023331;28;20037;-79
2022/10/07 02:44:54;;;;;;;8.07;3.05;;;6.30;99.90;;;;;;5025308;28;20033;-79
2022/10/07 02:47:32;;;;;;;5.63;2.88;;;6.40;99.90;;;;;;5034697;28;20048;-78
2022/10/07 02:50:02;;;;;;;6.78;2.97;;;6.40;99.90;;;;;;5022103;28;20041;-79
2022/10/07 02:52:31;;;;;;;5.18;2.38;;;6.30;99.90;;;;;;5016198;28;20130;-79
2022/10/07 02:55:10;;;;;;;3.80;2.50;;;6.30;99.90;;;;;;5021915;28;20045;-78
2022/10/07 02:57:43;;;;;;;6.40;2.95;;;6.30;99.90;;;;;;5023660;28;20033;-79
2022/10/07 03:00:11;;;;;;;5.32;2.35;;;6.20;99.90;;;;;;5031121;28;20167;-79
2022/10/07 03:02:52;;;;;;;4.28;2.05;;;6.20;99.90;;;;;;5023345;28;20281;-79
2022/10/07 03:05:19;;;;;;;3.78;2.00;;;6.20;99.90;;;;;;5025229;28;20037;-79
2022/10/07 03:07:51;;;;;;;6.45;2.38;;;6.20;99.90;;;;;;5026663;28;20033;-79
2022/10/07 03:10:17;;;;;;;6.25;2.20;;;6.20;99.90;;;;;;5030461;28;20033;-79
2022/10/07 03:12:43;;;;;;;6.50;2.35;;;6.20;99.90;;;;;;5024268;28;20538;-78
2022/10/07 03:15:10;;;;;;;5.03;2.30;;;6.30;99.90;;;;;;5033208;28;20445;-79
2022/10/07 03:17:37;;;;;;;5.93;2.33;;;6.20;99.90;;;;;;5024091;28;20127;-79
2022/10/07 03:20:02;;;;;;;3.58;2.30;;;6.30;99.90;;;;;;5029800;28;20036;-78
2022/10/07 03:22:28;;;;;;;5.22;2.30;;;6.30;99.90;;;;;;5027255;28;20029;-79
2022/10/07 03:24:54;;;;;;;5.00;2.22;;;6.30;99.90;;;;;;5027124;28;20021;-79
2022/10/07 03:27:20;;;;;;;7.32;2.88;;;6.20;99.90;;;;;;5026723;28;20508;-79
2022/10/07 03:29:45;;;;;;;4.72;2.30;;;6.20;99.90;;;;;;5023496;28;20394;-79
2022/10/07 03:32:11;;;;;;;4.40;2.42;;;6.20;99.90;;;;;;5028173;28;20029;-79
2022/10/07 03:34:37;;;;;;;6.68;2.63;;;6.20;99.90;;;;;;5025724;28;20474;-78
2022/10/07 03:37:03;;;;;;;5.75;2.72;;;6.10;99.90;;;;;;5024871;28;20036;-79
2022/10/07 03:39:29;;;;;;;8.15;2.80;;;6.10;99.90;;;;;;5024110;28;20610;-79
2022/10/07 03:41:55;;;;;;;7.43;3.38;;;6.10;99.90;;;;;;5018480;28;20040;-79
2022/10/07 03:44:21;;;;;;;8.15;3.15;;;6.10;99.90;;;;;;5024531;28;20596;-79
2022/10/07 03:46:48;;;;;;;7.45;3.05;;;6.00;99.90;;;;;;5028863;28;20230;-79
2022/10/07 03:49:14;;;;;;;4.95;2.70;;;6.00;99.90;;;;;;5023467;28;20084;-79
2022/10/07 03:51:40;;;;;;;6.32;3.00;;;6.00;99.90;;;;;;5025239;28;20091;-79
2022/10/07 03:54:06;;;;;;;5.22;3.35;;;6.00;99.90;;;;;;5026750;28;20033;-79
2022/10/07 03:56:32;;;;;;;7.53;3.13;;;6.00;99.90;;;;;;5020098;28;20123;-79
2022/10/07 03:58:58;;;;;;;4.70;2.88;;;6.00;99.90;;;;;;5027155;28;20084;-78
2022/10/07 04:01:24;;;;;;;4.32;2.90;;;6.00;99.90;;;;;;5024284;28;20033;-79
2022/10/07 04:03:51;;;;;;;5.05;2.70;;;6.00;99.90;;;;;;5026203;28;20044;-79
2022/10/07 04:06:17;;;;;;;4.82;2.90;;;6.10;99.90;;;;;;5020859;28;20044;-79
2022/10/07 04:08:43;;;;;;;5.15;3.00;;;6.10;99.90;;;;;;5019579;28;20440;-78
2022/10/07 04:11:10;;;;;;;7.40;3.70;;;6.10;99.90;;;;;;5026556;28;20106;-79
2022/10/07 04:13:36;;;;;;;11.70;5.45;;;6.10;99.90;;;;;;5027305;28;20075;-79
2022/10/07 04:16:07;;;;;;;18.58;9.90;;;6.10;99.90;;;;;;5026378;28;20033;-79
2022/10/07 04:18:32;;;;;;;21.90;9.15;;;6.00;99.90;;;;;;5024875;28;20103;-79
2022/10/07 04:20:59;;;;;;;13.27;7.55;;;6.00;99.90;;;;;;5025831;28;20481;-79
2022/10/07 04:23:25;;;;;;;12.98;5.53;;;6.00;99.90;;;;;;5025581;28;20563;-79
2022/10/07 04:25:50;;;;;;;9.20;4.32;;;5.90;99.90;;;;;;5028728;28;20037;-79
2022/10/07 04:28:22;;;;;;;7.82;4.47;;;5.80;99.90;;;;;;5025145;28;20076;-79
2022/10/07 04:30:50;;;;;;;5.72;4.32;;;5.80;99.90;;;;;;5024544;28;20041;-79
2022/10/07 04:33:21;;;;;;;4.50;3.33;;;5.70;99.90;;;;;;5028442;28;20078;-78
2022/10/07 04:35:49;;;;;;;4.43;2.95;;;5.80;99.90;;;;;;5022757;28;20073;-78
2022/10/07 04:38:16;;;;;;;3.63;3.05;;;5.80;99.90;;;;;;5021011;28;20029;-78
2022/10/07 04:40:44;;;;;;;4.35;3.13;;;5.70;99.90;;;;;;5025153;28;20028;-78
2022/10/07 04:43:18;;;;;;;5.35;3.60;;;5.70;99.90;;;;;;5028627;28;20033;-79
2022/10/07 04:45:44;;;;;;;5.88;3.35;;;5.60;99.90;;;;;;5028270;28;20025;-79
2022/10/07 04:48:09;;;;;;;5.80;3.58;;;5.60;99.90;;;;;;5024930;28;20034;-80
2022/10/07 04:50:37;;;;;;;4.22;3.55;;;5.50;99.90;;;;;;5033653;28;20021;-79
2022/10/07 04:53:04;;;;;;;7.57;4.68;;;5.50;99.90;;;;;;5026465;28;20032;-79
2022/10/07 04:55:35;;;;;;;7.85;6.15;;;5.60;99.90;;;;;;5023304;28;20041;-79
2022/10/07 04:58:01;;;;;;;9.73;6.68;;;5.60;99.90;;;;;;5024915;28;20485;-80
2022/10/07 05:00:27;;;;;;;8.18;6.43;;;5.60;99.90;;;;;;5028169;28;20158;-79
2022/10/07 05:02:53;;;;;;;6.38;5.20;;;5.60;99.90;;;;;;5026129;28;20532;-79
2022/10/07 05:05:19;;;;;;;7.60;4.82;;;5.60;99.90;;;;;;5025078;28;20124;-79
2022/10/07 05:07:49;;;;;;;6.45;4.80;;;5.60;99.90;;;;;;5019699;28;20124;-79
2022/10/07 05:10:15;;;;;;;5.80;4.25;;;5.60;99.90;;;;;;5027768;28;20030;-80
2022/10/07 05:12:41;;;;;;;4.25;3.78;;;5.60;99.90;;;;;;5030045;28;20393;-80
2022/10/07 05:15:07;;;;;;;6.00;3.85;;;5.50;99.90;;;;;;5023697;28;20040;-79
2022/10/07 05:17:34;;;;;;;3.83;3.40;;;5.50;99.90;;;;;;5023421;28;20626;-80
2022/10/07 05:20:00;;;;;;;4.38;3.05;;;5.50;99.90;;;;;;5028534;28;20021;-80
2022/10/07 05:22:26;;;;;;;8.65;3.80;;;5.40;99.90;;;;;;5034114;28;20025;-80
2022/10/07 05:24:53;;;;;;;7.35;4.30;;;5.40;99.90;;;;;;5026640;28;20109;-79
2022/10/07 05:27:19;;;;;;;10.93;4.50;;;5.50;99.90;;;;;;5019516;28;20155;-79
2022/10/07 05:29:44;;;;;;;10.75;4.85;;;5.50;99.90;;;;;;5021243;28;20039;-79
2022/10/07 05:32:10;;;;;;;6.95;3.60;;;5.50;99.90;;;;;;5025847;28;20049;-80
2022/10/07 05:34:35;;;;;;;7.25;3.70;;;5.50;99.90;;;;;;5028336;28;20043;-79
2022/10/07 05:37:01;;;;;;;5.30;3.58;;;5.60;99.90;;;;;;5024911;28;20469;-79
2022/10/07 05:39:26;;;;;;;5.22;3.20;;;5.50;99.90;;;;;;5030146;28;20026;-80
2022/10/07 05:41:52;;;;;;;4.57;3.60;;;5.60;99.90;;;;;;5025322;28;20057;-80
2022/10/07 05:44:18;;;;;;;6.75;3.58;;;5.50;99.90;;;;;;5031987;28;20577;-79
2022/10/07 05:46:43;;;;;;;5.32;3.83;;;5.50;99.90;;;;;;5025138;28;20025;-80
2022/10/07 05:49:09;;;;;;;8.45;4.10;;;5.50;99.90;;;;;;5033156;28;20032;-80
2022/10/07 05:51:34;;;;;;;5.60;3.95;;;5.40;99.90;;;;;;5024360;28;20378;-80
2022/10/07 05:54:00;;;;;;;5.45;3.90;;;5.40;99.90;;;;;;5025581;28;20104;-80
2022/10/07 05:56:26;;;;;;;5.10;3.88;;;5.30;99.90;;;;;;5025968;28;20178;-80
2022/10/07 05:58:52;;;;;;;5.00;4.03;;;5.30;99.90;;;;;;5022786;28;20056;-80
2022/10/07 06:01:20;;;;;;;5.88;4.20;;;5.40;99.90;;;;;;5021375;28;20033;-80
2022/10/07 06:03:54;;;;;;;5.22;4.10;;;5.40;99.90;;;;;;5024548;28;20116;-79
2022/10/07 06:06:20;;;;;;;8.32;4.93;;;5.40;99.90;;;;;;5035708;28;20029;-80
2022/10/07 06:08:46;;;;;;;10.10;5.82;;;5.40;99.90;;;;;;5019419;28;20355;-80
2022/10/07 06:13:59;;;;;;;9.52;5.70;;;5.30;99.90;;;;;;5030314;28;20087;-80
2022/10/07 06:16:25;;;;;;;8.50;5.35;;;5.20;99.90;;;;;;5022624;28;20048;-80
2022/10/07 06:18:52;;;;;;;9.85;5.78;;;5.20;99.90;;;;;;5015918;28;20030;-80
2022/10/07 06:21:19;;;;;;;8.98;6.75;;;5.20;99.90;;;;;;5019899;28;20063;-80
2022/10/07 06:23:55;;;;;;;10.93;6.90;;;5.10;99.90;;;;;;5023117;28;20075;-80
2022/10/07 06:26:21;;;;;;;8.90;6.70;;;5.10;99.90;;;;;;5020956;28;20094;-79
2022/10/07 06:28:47;;;;;;;8.77;6.60;;;5.00;99.90;;;;;;5021476;28;20103;-79
2022/10/07 06:31:16;;;;;;;13.73;9.15;;;5.00;99.90;;;;;;5028410;28;20420;-80
2022/10/07 06:33:42;;;;;;;13.15;11.23;;;5.00;99.90;;;;;;5031787;28;20106;-79
2022/10/07 06:36:12;;;;;;;21.58;12.73;;;5.00;99.90;;;;;;5023963;28;20065;-80
2022/10/07 06:38:46;;;;;;;12.68;8.02;;;4.90;99.90;;;;;;5021909;28;20020;-79
2022/10/07 06:41:12;;;;;;;7.53;5.90;;;4.90;99.90;;;;;;5034640;28;20492;-79
2022/10/07 06:43:38;;;;;;;10.25;8.07;;;4.90;99.90;;;;;;5030911;28;20040;-80
2022/10/07 06:46:06;;;;;;;9.25;5.70;;;4.90;99.90;;;;;;5029114;28;20505;-80
2022/10/07 06:48:33;;;;;;;7.18;3.60;;;4.90;99.90;;;;;;5026761;28;20211;-80
2022/10/07 06:51:02;;;;;;;9.90;4.10;;;5.00;99.90;;;;;;5027843;28;20033;-79
2022/10/07 06:53:28;;;;;;;5.07;3.28;;;5.00;99.90;;;;;;5037374;28;20102;-80
2022/10/07 06:55:56;;;;;;;3.60;3.10;;;5.10;99.90;;;;;;5034628;28;20049;-79
2022/10/07 06:58:23;;;;;;;7.80;5.28;;;5.10;99.90;;;;;;5036689;28;20436;-80
2022/10/07 07:00:52;;;;;;;6.97;4.47;;;5.10;99.90;;;;;;5027190;28;20036;-80
2022/10/07 07:03:18;;;;;;;5.15;4.07;;;5.20;99.90;;;;;;5032857;28;20036;-79
2022/10/07 07:05:45;;;;;;;4.47;3.38;;;5.20;99.90;;;;;;5029415;28;20032;-80
2022/10/07 07:08:11;;;;;;;4.90;3.35;;;5.20;99.90;;;;;;5031857;28;20300;-79
2022/10/07 07:10:41;;;;;;;3.53;3.13;;;5.20;99.90;;;;;;5032872;28;20033;-80
2022/10/07 07:13:07;;;;;;;3.72;2.88;;;5.30;99.90;;;;;;5030533;28;20021;-80
2022/10/07 07:15:34;;;;;;;4.78;3.45;;;5.40;99.90;;;;;;5028445;28;20049;-80
2022/10/07 07:18:00;;;;;;;4.53;3.30;;;5.50;99.90;;;;;;5022872;28;20080;-80
2022/10/07 07:20:33;;;;;;;4.13;3.50;;;5.60;99.90;;;;;;5034854;28;20056;-79
2022/10/07 07:23:00;;;;;;;4.60;3.60;;;5.70;99.90;;;;;;5037098;28;20056;-79
2022/10/07 07:25:27;;;;;;;5.85;3.53;;;5.70;99.90;;;;;;5027804;28;20510;-79
2022/10/07 07:27:54;;;;;;;7.60;4.22;;;5.80;99.90;;;;;;5024926;28;20408;-79
2022/10/07 07:30:22;;;;;;;6.40;3.90;;;5.90;99.90;;;;;;5028719;28;20493;-80
2022/10/07 07:32:49;;;;;;;6.05;4.07;;;6.00;99.90;;;;;;5033022;28;20040;-79
2022/10/07 07:35:15;;;;;;;4.63;3.42;;;6.10;99.90;;;;;;5030833;28;20176;-79
2022/10/07 07:37:41;;;;;;;10.05;3.80;;;6.20;99.90;;;;;;5025239;28;20256;-79
2022/10/07 07:40:07;;;;;;;6.93;4.32;;;6.30;99.90;;;;;;5039394;28;20082;-80
2022/10/07 07:42:33;;;;;;;6.75;4.10;;;6.40;99.90;;;;;;5034303;28;20020;-79
2022/10/07 07:44:59;;;;;;;8.32;5.00;;;6.40;99.90;;;;;;5032120;28;20501;-79
2022/10/07 07:47:26;;;;;;;12.38;5.50;;;6.40;99.90;;;;;;5029724;28;20025;-80
2022/10/07 07:49:52;;;;;;;5.75;4.78;;;6.40;99.90;;;;;;5030608;28;20460;-79
2022/10/07 07:52:18;;;;;;;12.45;5.90;;;6.50;99.90;;;;;;5038037;28;20056;-79
2022/10/07 07:54:44;;;;;;;9.18;4.47;;;6.50;99.90;;;;;;5039638;28;20432;-79
2022/10/07 07:57:10;;;;;;;5.78;3.85;;;6.60;99.90;;;;;;5027980;28;20027;-79
2022/10/07 07:59:36;;;;;;;4.00;3.42;;;6.70;99.90;;;;;;5035224;28;20032;-79
2022/10/07 08:02:02;;;;;;;3.97;3.58;;;6.70;99.90;;;;;;5030730;28;20033;-79
2022/10/07 08:04:29;;;;;;;12.55;4.63;;;6.80;99.90;;;;;;5034762;28;20026;-79
2022/10/07 08:06:55;;;;;;;5.22;4.18;;;6.90;99.90;;;;;;5021383;28;20874;-79
2022/10/07 08:09:21;;;;;;;5.68;4.78;;;6.90;99.90;;;;;;5027201;28;21852;-79
2022/10/07 08:11:47;;;;;;;5.00;4.15;;;7.00;99.90;;;;;;5025562;28;20038;-78
2022/10/07 08:14:14;;;;;;;5.53;4.15;;;7.10;99.90;;;;;;5034931;28;20021;-79
2022/10/07 08:16:42;;;;;;;8.82;5.57;;;7.30;99.90;;;;;;5029001;28;20030;-80
2022/10/07 08:19:08;;;;;;;8.95;4.75;;;7.40;99.90;;;;;;5025109;28;20029;-82
2022/10/07 08:21:34;;;;;;;5.43;4.13;;;7.50;99.90;;;;;;4352883;28;10000884;-76
2022/10/07 08:24:02;;;;;;;4.88;3.28;;;7.60;99.90;;;;;;5060655;28;20414;-80
2022/10/07 08:26:29;;;;;;;5.43;4.38;;;7.70;99.90;;;;;;5064527;28;20343;-82
2022/10/07 08:28:56;;;;;;;4.22;3.83;;;7.90;99.90;;;;;;5059746;28;20044;-83
2022/10/07 08:31:26;;;;;;;7.70;5.57;;;8.00;99.90;;;;;;5061152;28;20046;-82
2022/10/07 08:33:53;;;;;;;6.68;5.07;;;8.30;99.90;;;;;;5065634;28;20070;-82
2022/10/07 08:36:21;;;;;;;6.10;3.97;;;8.40;99.90;;;;;;5059715;28;20325;-83
2022/10/07 08:38:47;;;;;;;7.97;4.10;;;8.60;99.90;;;;;;5063674;28;20035;-82
2022/10/07 08:41:32;;;;;;;5.63;4.18;;;8.70;99.90;;;;;;5058509;28;20021;-83
2022/10/07 08:44:22;;;;;;;5.78;4.03;;;8.80;99.90;;;;;;5059148;28;20497;-81
2022/10/07 08:46:56;;;;;;;7.25;5.30;;;8.90;99.90;;;;;;5060677;28;20101;-81
2022/10/07 08:49:34;;;;;;;8.43;6.15;;;9.00;99.90;;;;;;5063254;28;20667;-77
2022/10/07 08:52:13;;;;;;;7.60;5.72;;;9.10;99.90;;;;;;5065148;28;20049;-81
2022/10/07 08:54:38;;;;;;;6.70;4.47;;;9.20;99.90;;;;;;5025752;28;20041;-80
2022/10/07 08:57:15;;;;;;;7.97;4.32;;;9.40;99.90;;;;;;5024141;28;20017;-81
2022/10/07 08:59:49;;;;;;;6.93;4.75;;;9.60;99.90;;;;;;5025484;28;20029;-80
2022/10/07 09:02:30;;;;;;;8.55;4.70;;;9.70;99.90;;;;;;5037018;28;20033;-80
2022/10/07 09:05:17;;;;;;;11.35;4.97;;;9.90;99.90;;;;;;5025143;28;20549;-79
2022/10/07 09:07:47;;;;;;;9.90;3.92;;;10.10;99.90;;;;;;5024891;28;20145;-77
2022/10/07 09:10:52;;;;;;;8.73;3.55;;;10.20;99.90;;;;;;5029272;28;20029;-80
2022/10/07 09:13:26;;;;;;;8.00;3.28;;;10.40;99.90;;;;;;5034437;28;20029;-80
2022/10/07 09:16:03;;;;;;;7.25;3.25;;;10.50;99.90;;;;;;5024465;28;20502;-79
2022/10/07 09:18:38;;;;;;;6.63;3.38;;;10.60;99.90;;;;;;5034219;28;20037;-78
2022/10/07 09:21:27;;;;;;;9.13;3.75;;;10.70;99.90;;;;;;5026975;28;20037;-82
2022/10/07 09:24:01;;;;;;;8.25;3.60;;;10.80;99.90;;;;;;5029377;28;20452;-82
2022/10/07 09:26:27;;;;;;;8.15;3.25;;;11.00;99.90;;;;;;5028856;28;20075;-81
2022/10/07 09:28:53;;;;;;;12.63;5.90;;;11.10;99.90;;;;;;5024819;28;20451;-79
2022/10/07 09:31:22;;;;;;;16.45;6.07;;;11.20;99.90;;;;;;5025370;28;20102;-81
2022/10/07 09:33:49;;;;;;;13.45;4.18;;;11.20;99.90;;;;;;5021129;28;20104;-79
2022/10/07 09:36:17;;;;;;;12.95;5.63;;;11.30;99.90;;;;;;5026209;28;20615;-78
2022/10/07 09:38:48;;;;;;;10.88;4.13;;;11.30;99.90;;;;;;5032219;28;20031;-82
2022/10/07 09:41:16;;;;;;;20.30;8.60;;;11.40;99.90;;;;;;5029551;28;20112;-79
2022/10/07 09:43:53;;;;;;;12.35;6.05;;;11.40;99.90;;;;;;5026040;28;20033;-79
2022/10/07 09:46:56;;;;;;;14.93;4.15;;;11.60;99.90;;;;;;5030081;28;20072;-80
2022/10/07 09:49:27;;;;;;;11.32;4.22;;;11.60;99.90;;;;;;5030147;28;20029;-81
2022/10/07 09:52:01;;;;;;;13.68;4.10;;;11.70;99.90;;;;;;5029468;28;20507;-79
2022/10/07 09:54:28;;;;;;;7.80;3.65;;;11.80;99.90;;;;;;5027083;28;20075;-78
2022/10/07 09:56:56;;;;;;;9.55;3.28;;;12.00;99.90;;;;;;5031866;28;20047;-78
2022/10/07 09:59:30;;;;;;;11.27;3.72;;;12.10;99.90;;;;;;5025659;28;20040;-77
2022/10/07 10:02:01;;;;;;;7.20;3.70;;;12.20;99.90;;;;;;5030987;28;20795;-78
2022/10/07 10:04:36;;;;;;;7.82;3.53;;;12.20;99.90;;;;;;5028403;28;20396;-77
2022/10/07 10:07:26;;;;;;;10.00;3.33;;;12.40;99.90;;;;;;5025964;28;20112;-77
2022/10/07 10:10:14;;;;;;;10.73;3.55;;;12.40;99.90;;;;;;5026043;28;20083;-76
2022/10/07 10:12:49;;;;;;;10.93;3.55;;;12.50;99.90;;;;;;5033428;28;20036;-75
2022/10/07 10:15:28;;;;;;;9.15;3.30;;;12.70;99.90;;;;;;5034400;28;20386;-76
2022/10/07 10:17:56;;;;;;;5.45;3.05;;;12.70;99.90;;;;;;5032533;28;20048;-79
2022/10/07 10:20:38;;;;;;;11.00;3.65;;;12.80;99.90;;;;;;5028967;28;20164;-76
2022/10/07 10:23:33;;;;;;;10.02;3.53;;;12.90;99.90;;;;;;5032936;28;20477;-75
2022/10/07 10:26:26;;;;;;;10.30;3.22;;;13.00;99.90;;;;;;5034616;28;20119;-75
2022/10/07 10:28:58;;;;;;;13.70;3.53;;;13.10;99.90;;;;;;5035579;28;20560;-75
2022/10/07 10:31:51;;;;;;;9.52;3.20;;;13.30;99.90;;;;;;5046589;28;20048;-75
2022/10/07 10:34:25;;;;;;;7.97;3.15;;;13.40;99.90;;;;;;5033979;28;20238;-75
2022/10/07 10:37:17;;;;;;;10.40;3.58;;;13.50;99.90;;;;;;5029514;28;20037;-75
2022/10/07 10:40:20;;;;;;;8.65;4.00;;;13.60;99.90;;;;;;5030232;28;20124;-77
2022/10/07 10:43:23;;;;;;;9.80;3.03;;;13.80;99.90;;;;;;5041027;28;20029;-75
2022/10/07 10:45:51;;;;;;;8.00;3.80;;;13.90;99.90;;;;;;5027230;28;20022;-77
2022/10/07 10:48:43;;;;;;;9.13;4.28;;;14.10;99.90;;;;;;5028109;28;20099;-75
2022/10/07 10:51:09;;;;;;;9.55;3.60;;;14.20;99.90;;;;;;5041944;28;20028;-75
2022/10/07 10:54:20;;;;;;;8.40;3.53;;;14.20;99.90;;;;;;5037130;28;20034;-75
2022/10/07 10:56:50;;;;;;;7.38;3.80;;;14.30;99.90;;;;;;5026069;28;20559;-75
2022/10/07 10:59:43;;;;;;;10.05;4.07;;;14.40;99.90;;;;;;5035525;28;20033;-75
2022/10/07 11:02:14;;;;;;;10.65;2.97;;;14.60;99.90;;;;;;5032026;28;20036;-76
2022/10/07 11:04:44;;;;;;;10.10;3.95;;;14.60;99.90;;;;;;5028119;28;20095;-76
2022/10/07 11:07:44;;;;;;;8.05;3.65;;;14.70;99.90;;;;;;5035775;28;20417;-76
2022/10/07 11:10:28;;;;;;;6.57;3.20;;;14.80;99.90;;;;;;5029671;28;20044;-76
2022/10/07 11:12:59;;;;;;;10.73;3.50;;;15.00;99.90;;;;;;5033205;28;20489;-75
2022/10/07 11:15:33;;;;;;;8.23;2.85;;;15.10;99.90;;;;;;5039751;28;20045;-77
2022/10/07 11:18:06;;;;;;;10.20;3.75;;;15.20;99.90;;;;;;5029270;28;20087;-76
2022/10/07 11:20:46;;;;;;;11.52;3.50;;;;;;;;;;5033812;28;20021;-76
2022/10/07 11:23:30;;;;;;;8.80;3.13;;;15.50;99.90;;;;;;5034491;28;20076;-80
2022/10/07 11:26:01;;;;;;;7.30;2.90;;;15.70;99.90;;;;;;5026180;28;20061;-78
2022/10/07 11:28:31;;;;;;;12.55;3.30;;;15.80;99.90;;;;;;5030162;28;20052;-81
2022/10/07 11:31:05;;;;;;;9.75;2.95;;;16.00;99.90;;;;;;5038989;28;20141;-78
2022/10/07 11:33:45;;;;;;;7.55;2.25;;;15.90;99.90;;;;;;5029649;28;20433;-76
2022/10/07 11:36:23;;;;;;;11.20;2.70;;;16.00;99.90;;;;;;5037239;28;20112;-79
2022/10/07 11:38:51;;;;;;;10.52;2.38;;;16.10;99.90;;;;;;5040208;28;20031;-76
2022/10/07 11:41:30;;;;;;;7.47;2.25;;;16.20;99.90;;;;;;5034760;28;20412;-76
2022/10/07 11:44:02;;;;;;;7.28;1.95;;;16.30;99.90;;;;;;5027177;28;20021;-76
2022/10/07 11:46:39;;;;;;;9.23;2.47;;;16.40;99.90;;;;;;5027628;28;20029;-76
2022/10/07 11:49:13;;;;;;;9.93;2.38;;;16.50;99.90;;;;;;5034694;28;20179;-75
2022/10/07 11:51:50;;;;;;;6.80;2.17;;;16.50;99.90;;;;;;5031074;28;20127;-76
2022/10/07 11:54:19;;;;;;;9.13;2.03;;;16.60;99.90;;;;;;5041758;28;20512;-76
2022/10/07 11:56:50;;;;;;;7.65;2.15;;;16.70;99.90;;;;;;5033333;28;20145;-78
2022/10/07 11:59:39;;;;;;;7.22;1.98;;;16.80;99.90;;;;;;5035234;28;20111;-76
2022/10/07 12:02:28;;;;;;;7.85;1.48;;;16.80;99.90;;;;;;5036859;28;20025;-76
2022/10/07 12:05:00;;;;;;;7.10;1.52;;;17.00;99.90;;;;;;5039130;28;20035;-76
2022/10/07 12:07:31;;;;;;;4.20;1.42;;;17.10;99.90;;;;;;5029097;28;20021;-76
2022/10/07 12:10:03;;;;;;;8.95;1.70;;;17.20;99.90;;;;;;5033142;28;20385;-76
2022/10/07 12:12:41;;;;;;;7.38;1.80;;;17.30;99.90;;;;;;5042458;28;20036;-77
2022/10/07 12:15:43;;;;;;;8.68;1.60;;;17.40;99.90;;;;;;5032388;28;20025;-76
2022/10/07 12:18:16;;;;;;;4.55;1.42;;;17.60;99.90;;;;;;5031569;28;20596;-74
2022/10/07 12:20:51;;;;;;;9.30;1.55;;;17.70;99.90;;;;;;5047952;28;20025;-77
2022/10/07 12:23:17;;;;;;;8.35;1.42;;;17.80;99.90;;;;;;5039468;28;20157;-77
2022/10/07 12:25:47;;;;;;;9.85;1.20;;;17.90;99.90;;;;;;5034157;28;20041;-78
2022/10/07 12:28:38;;;;;;;5.68;1.10;;;17.90;99.90;;;;;;5034721;28;20041;-76
2022/10/07 12:31:22;;;;;;;9.25;1.30;;;17.90;99.90;;;;;;5036768;28;20129;-79
2022/10/07 12:34:08;;;;;;;8.80;1.48;;;17.90;99.90;;;;;;5031757;28;20105;-76
2022/10/07 12:36:34;;;;;;;7.90;1.08;;;18.00;99.90;;;;;;5035398;28;20521;-78
2022/10/07 12:39:00;;;;;;;5.60;1.10;;;18.00;99.90;;;;;;5028896;28;20040;-78
2022/10/07 12:41:35;;;;;;;4.35;0.90;;;18.00;99.90;;;;;;5034430;28;20025;-78
2022/10/07 12:44:26;;;;;;;7.25;1.10;;;18.00;99.90;;;;;;5035040;28;20020;-78
2022/10/07 12:46:59;;;;;;;6.00;1.17;;;18.10;99.90;;;;;;5037492;28;20099;-78
2022/10/07 12:49:40;;;;;;;6.43;1.13;;;18.20;99.90;;;;;;5026676;28;20108;-78
2022/10/07 12:52:12;;;;;;;4.50;1.05;;;18.20;99.90;;;;;;5032603;28;20037;-79
2022/10/07 12:54:57;;;;;;;4.75;0.73;;;18.20;98.70;;;;;;5034302;28;20068;-79
2022/10/07 12:57:34;;;;;;;7.82;1.08;;;18.20;99.00;;;;;;5026963;28;20041;-79
2022/10/07 13:00:14;;;;;;;5.32;1.00;;;18.20;98.40;;;;;;5027791;28;20040;-79
2022/10/07 13:03:02;;;;;;;5.70;1.10;;;18.00;99.30;;;;;;5040633;28;20116;-79
2022/10/07 13:05:44;;;;;;;4.50;1.10;;;18.00;99.70;;;;;;5030371;28;20082;-79
2022/10/07 13:08:27;;;;;;;3.63;0.80;;;18.00;99.80;;;;;;5031702;28;20430;-79
2022/10/07 13:11:11;;;;;;;7.30;1.10;;;18.10;99.60;;;;;;5027032;28;20025;-79
2022/10/07 13:13:50;;;;;;;5.35;0.90;;;18.10;99.60;;;;;;5025618;28;20096;-80
2022/10/07 13:16:33;;;;;;;6.32;1.00;;;18.20;98.40;;;;;;5037613;28;20036;-79
2022/10/07 13:19:30;;;;;;;3.07;0.80;;;18.20;98.30;;;;;;5044320;28;20017;-79
2022/10/07 13:22:14;;;;;;;3.05;0.90;;;18.10;97.90;;;;;;5042478;28;20045;-80